Time;durP1;ratioP1;P1;durP2;ratioP2;P2;SDS_P1;SDS_P2;PMS_P1;PMS_P2;Temp;Humidity;BMP_temperature;BMP_pressure;BME280_temperature;BME280_humidity;BME280_pressure;Samples;Min_cycle;Max_cycle;Signal;HPM_P1;HPM_P2
2023/12/19 00:02:09;;;;;;;58.70;30.00;;;;;;;5.09;100.00;101473.38;105598;1257;59516;-75
2023/12/19 00:04:36;;;;;;;56.70;27.10;;;;;;;5.11;100.00;101476.61;105622;1254;72784;-74
2023/12/19 00:07:03;;;;;;;66.00;31.30;;;;;;;5.11;100.00;101479.20;105662;1258;63938;-78
2023/12/19 00:09:30;;;;;;;52.70;27.70;;;;;;;5.12;100.00;101475.04;105631;1258;72735;-77
2023/12/19 00:11:57;;;;;;;56.20;27.40;;;;;;;5.14;100.00;101479.83;105596;1260;60184;-76
2023/12/19 00:14:24;;;;;;;67.50;30.00;;;;;;;5.16;100.00;101481.17;105597;1260;59633;-77
2023/12/19 00:16:51;;;;;;;51.40;27.20;;;;;;;5.17;100.00;101481.48;105652;1254;71587;-77
2023/12/19 00:19:18;;;;;;;58.00;30.60;;;;;;;5.18;100.00;101482.02;105665;1259;62815;-76
2023/12/19 00:21:44;;;;;;;69.30;30.80;;;;;;;5.18;100.00;101479.73;105593;1254;71146;-77
2023/12/19 00:24:12;;;;;;;51.00;26.80;;;;;;;5.20;100.00;101477.60;105699;1254;61012;-77
2023/12/19 00:26:39;;;;;;;60.50;31.40;;;;;;;5.21;100.00;101476.73;105771;1254;59661;-75
2023/12/19 00:29:07;;;;;;;62.10;31.80;;;;;;;5.22;100.00;101477.05;105698;1259;72036;-76
2023/12/19 00:31:34;;;;;;;57.20;30.00;;;;;;;5.22;100.00;101483.63;105932;1256;62214;-77
2023/12/19 00:34:01;;;;;;;62.80;29.20;;;;;;;5.22;100.00;101484.70;105803;1255;72321;-76
2023/12/19 00:36:28;;;;;;;58.10;29.70;;;;;;;5.21;100.00;101491.29;105920;1256;60936;-76
2023/12/19 00:38:55;;;;;;;56.10;29.00;;;;;;;5.21;100.00;101493.73;105818;1256;59541;-76
2023/12/19 00:41:22;;;;;;;61.40;30.20;;;;;;;5.21;100.00;101491.30;105955;1254;72888;-75
2023/12/19 00:43:49;;;;;;;52.20;28.90;;;;;;;5.21;100.00;101492.52;105944;1257;63894;-76
2023/12/19 00:46:16;;;;;;;53.30;29.30;;;;;;;5.21;100.00;101495.10;105740;1256;72508;-75
2023/12/19 00:48:44;;;;;;;65.20;30.10;;;;;;;5.22;100.00;101497.85;105997;1253;59789;-77
2023/12/19 00:51:11;;;;;;;55.80;27.00;;;;;;;5.21;100.00;101503.41;105922;1256;59537;-78
2023/12/19 00:53:38;;;;;;;56.20;29.20;;;;;;;5.23;100.00;101505.98;105863;1254;73124;-73
2023/12/19 00:56:08;;;;;;;55.80;27.30;;;;;;;5.25;100.00;101510.45;105910;1257;63914;-74
2023/12/19 00:58:36;;;;;;;50.10;28.70;;;;;;;5.26;100.00;101514.92;105730;1255;72861;-75
2023/12/19 01:01:04;;;;;;;54.40;27.90;;;;;;;5.26;100.00;101518.04;105996;1256;60848;-74
2023/12/19 01:03:35;;;;;;;52.10;28.20;;;;;;;5.29;100.00;101520.73;106073;1254;60305;-75
2023/12/19 01:06:02;;;;;;;53.00;29.40;;;;;;;5.32;100.00;101519.11;106480;1254;73118;-74
2023/12/19 01:08:30;;;;;;;52.50;26.80;;;;;;;5.34;100.00;101516.13;108025;1254;64374;-74
2023/12/19 01:10:57;;;;;;;47.90;26.30;;;;;;;5.36;100.00;101517.80;108208;1256;71364;-75
2023/12/19 01:13:24;;;;;;;48.10;26.80;;;;;;;5.37;100.00;101514.13;107700;1254;60830;-75
2023/12/19 01:15:51;;;;;;;54.80;27.00;;;;;;;5.39;100.00;101513.55;107094;1254;61081;-72
2023/12/19 01:18:18;;;;;;;51.60;28.60;;;;;;;5.42;100.00;101516.98;106624;1255;73090;-75
2023/12/19 01:20:47;;;;;;;45.60;25.60;;;;;;;5.42;100.00;101511.41;105809;1257;62469;-75
2023/12/19 01:23:15;;;;;;;43.20;25.70;;;;;;;5.41;100.00;101511.78;106022;1251;71242;-75
2023/12/19 01:25:42;;;;;;;47.70;25.90;;;;;;;5.37;100.00;101512.21;105967;1254;59767;-78
2023/12/19 01:28:10;;;;;;;47.80;26.10;;;;;;;5.35;100.00;101511.59;105900;1257;59554;-77
2023/12/19 01:30:39;;;;;;;44.60;25.60;;;;;;;5.31;100.00;101516.54;105894;1256;72916;-77
2023/12/19 01:33:09;;;;;;;51.20;27.50;;;;;;;5.30;100.00;101517.41;105924;1257;63900;-75
2023/12/19 01:35:36;;;;;;;44.30;24.60;;;;;;;5.32;100.00;101519.09;105891;1254;71091;-77
2023/12/19 01:38:03;;;;;;;45.40;25.40;;;;;;;5.35;100.00;101517.13;105946;1254;59794;-76
2023/12/19 01:40:31;;;;;;;46.30;24.40;;;;;;;5.36;100.00;101518.65;105663;1254;60331;-76
2023/12/19 01:42:58;;;;;;;43.30;25.30;;;;;;;5.38;100.00;101515.48;105811;1253;71762;-75
2023/12/19 01:45:27;;;;;;;47.90;25.10;;;;;;;5.38;100.00;101509.94;105790;1256;63933;-75
2023/12/19 01:47:54;;;;;;;43.10;24.00;;;;;;;5.39;100.00;101510.95;105832;1255;71244;-77
2023/12/19 01:50:21;;;;;;;47.40;25.20;;;;;;;5.40;100.00;101506.42;105892;1257;61620;-75
2023/12/19 01:52:56;;;;;;;47.70;25.70;;;;;;;5.41;100.00;101507.61;105897;1254;60308;-74
2023/12/19 01:55:26;;;;;;;43.40;24.30;;;;;;;5.43;100.00;101508.27;105966;1255;73035;-76
2023/12/19 01:57:54;;;;;;;45.20;25.60;;;;;;;5.43;100.00;101504.09;106008;1256;62953;-76
2023/12/19 02:00:22;;;;;;;44.80;25.00;;;;;;;5.43;100.00;101507.77;105839;1256;72474;-76
2023/12/19 02:02:52;;;;;;;42.90;24.80;;;;;;;5.43;100.00;101510.70;105836;1257;60893;-75
2023/12/19 02:05:18;;;;;;;45.10;24.60;;;;;;;5.45;100.00;101513.77;105843;1253;60606;-75
2023/12/19 02:07:45;;;;;;;43.20;27.10;;;;;;;5.45;100.00;101512.39;105642;1255;72796;-75
2023/12/19 02:10:13;;;;;;;52.50;28.00;;;;;;;5.44;100.00;101509.29;105753;1259;63925;-76
2023/12/19 02:12:42;;;;;;;46.50;27.40;;;;;;;5.43;100.00;101509.83;105858;1254;72668;-74
2023/12/19 02:15:09;;;;;;;47.50;26.90;;;;;;;5.44;100.00;101507.55;105882;1254;60445;-76
2023/12/19 02:17:36;;;;;;;50.00;28.70;;;;;;;5.45;100.00;101508.41;105922;1254;60549;-74
2023/12/19 02:20:03;;;;;;;46.90;26.30;;;;;;;5.46;100.00;101513.92;106132;1257;73175;-74
2023/12/19 02:22:30;;;;;;;46.90;27.50;;;;;;;5.48;100.00;101513.35;106622;1256;62558;-74
2023/12/19 02:24:57;;;;;;;51.00;28.00;;;;;;;5.49;100.00;101512.64;108299;1254;72483;-75
2023/12/19 02:27:24;;;;;;;46.40;27.50;;;;;;;5.48;100.00;101511.96;106521;1253;60472;-76
2023/12/19 02:29:51;;;;;;;53.50;28.60;;;;;;;5.48;100.00;101507.96;105909;1255;60457;-75
2023/12/19 02:32:18;;;;;;;49.50;28.10;;;;;;;5.46;100.00;101505.25;105954;1252;73620;-74
2023/12/19 02:34:45;;;;;;;55.20;28.40;;;;;;;5.44;100.00;101502.52;105921;1255;62352;-74
2023/12/19 02:37:13;;;;;;;59.70;30.70;;;;;;;5.43;100.00;101504.98;108380;1252;71273;-75
2023/12/19 02:39:39;;;;;;;53.00;28.50;;;;;;;5.43;100.00;101506.20;109314;1251;60297;-75
2023/12/19 02:42:06;;;;;;;55.50;29.20;;;;;;;5.45;100.00;101510.83;106080;1253;60313;-76
2023/12/19 02:44:34;;;;;;;57.10;29.90;;;;;;;5.47;100.00;101510.61;105945;1254;72761;-74
2023/12/19 02:47:01;;;;;;;53.70;29.90;;;;;;;5.49;100.00;101506.91;106005;1257;63746;-74
2023/12/19 02:49:28;;;;;;;54.70;30.00;;;;;;;5.48;100.00;101507.27;105837;1254;72439;-74
2023/12/19 02:51:55;;;;;;;55.00;29.60;;;;;;;5.49;100.00;101508.99;105844;1257;61085;-75
2023/12/19 02:54:22;;;;;;;55.40;29.20;;;;;;;5.48;100.00;101505.89;106031;1257;60514;-74
2023/12/19 02:56:49;;;;;;;54.10;27.50;;;;;;;5.48;100.00;101507.82;105920;1252;72446;-75
2023/12/19 02:59:16;;;;;;;57.40;29.60;;;;;;;5.45;100.00;101505.27;105959;1256;62945;-75
2023/12/19 03:01:47;;;;;;;63.00;29.70;;;;;;;5.41;100.00;101504.16;105819;1254;72661;-76
2023/12/19 03:04:14;;;;;;;61.10;30.50;;;;;;;5.39;100.00;101503.34;105791;1256;60961;-76
2023/12/19 03:06:41;;;;;;;56.30;28.90;;;;;;;5.38;100.00;101500.40;105911;1254;60459;-75
2023/12/19 03:09:08;;;;;;;58.00;28.00;;;;;;;5.38;100.00;101504.73;105853;1256;73984;-77
2023/12/19 03:11:37;;;;;;;62.30;31.30;;;;;;;5.37;100.00;101507.53;105892;1256;63948;-75
2023/12/19 03:14:04;;;;;;;62.40;32.20;;;;;;;5.37;100.00;101505.79;105834;1254;71511;-75
2023/12/19 03:16:32;;;;;;;68.00;32.50;;;;;;;5.39;100.00;101506.28;105962;1256;61212;-75
2023/12/19 03:18:58;;;;;;;61.10;31.10;;;;;;;5.38;100.00;101504.22;105704;1253;60549;-77
2023/12/19 03:21:26;;;;;;;64.60;31.60;;;;;;;5.37;100.00;101503.91;106119;1255;73767;-75
2023/12/19 03:23:53;;;;;;;68.80;32.00;;;;;;;5.37;100.00;101499.89;105855;1256;63964;-76
2023/12/19 03:26:19;;;;;;;62.90;30.50;;;;;;;5.39;100.00;101502.11;106006;1255;71084;-77
2023/12/19 03:28:46;;;;;;;72.20;32.90;;;;;;;5.41;100.00;101502.59;105967;1256;61271;-76
2023/12/19 03:31:13;;;;;;;68.50;33.10;;;;;;;5.43;100.00;101503.25;105829;1256;60434;-76
2023/12/19 03:33:40;;;;;;;73.80;34.20;;;;;;;5.44;100.00;101496.30;105845;1255;73665;-76
2023/12/19 03:36:08;;;;;;;66.90;33.20;;;;;;;5.44;100.00;101492.80;105854;1256;63658;-75
2023/12/19 03:38:35;;;;;;;84.10;37.80;;;;;;;5.43;100.00;101486.08;105882;1252;72686;-76
2023/12/19 03:41:02;;;;;;;84.40;38.00;;;;;;;5.40;100.00;101490.13;105947;1256;60532;-76
2023/12/19 03:43:29;;;;;;;91.50;38.60;;;;;;;5.40;100.00;101494.64;106045;1251;60469;-76
2023/12/19 03:46:01;;;;;;;87.30;38.80;;;;;;;5.40;100.00;101495.85;105889;1256;73999;-76
2023/12/19 03:48:27;;;;;;;79.50;38.30;;;;;;;5.40;100.00;101493.08;105861;1257;63835;-76
2023/12/19 03:50:54;;;;;;;84.80;38.50;;;;;;;5.39;100.00;101498.46;106118;1257;71475;-74
2023/12/19 03:53:21;;;;;;;95.30;42.90;;;;;;;5.39;100.00;101495.02;106032;1256;60979;-75
2023/12/19 03:55:48;;;;;;;87.60;44.00;;;;;;;5.37;100.00;101492.46;105941;1256;60449;-75
2023/12/19 03:58:16;;;;;;;94.50;43.50;;;;;;;5.36;100.00;101494.73;106101;1252;73514;-76
2023/12/19 04:00:42;;;;;;;97.60;44.00;;;;;;;5.37;100.00;101495.08;105866;1257;62314;-77
2023/12/19 04:03:09;;;;;;;102.30;46.50;;;;;;;5.36;100.00;101490.07;105884;1256;72640;-74
2023/12/19 04:05:36;;;;;;;112.10;47.50;;;;;;;5.36;100.00;101484.86;105934;1251;60488;-76
2023/12/19 04:08:04;;;;;;;104.30;50.30;;;;;;;5.35;100.00;101478.98;105924;1257;60466;-73
2023/12/19 04:10:31;;;;;;;104.70;49.10;;;;;;;5.34;100.00;101481.79;105916;1257;73970;-75
2023/12/19 04:12:58;;;;;;;115.90;55.90;;;;;;;5.34;100.00;101479.52;105790;1255;63969;-75
2023/12/19 04:15:24;;;;;;;122.90;55.90;;;;;;;5.35;100.00;101478.47;105785;1251;72636;-74
2023/12/19 04:17:52;;;;;;;126.30;59.20;;;;;;;5.35;100.00;101485.23;105836;1255;60433;-73
2023/12/19 04:20:18;;;;;;;116.20;58.50;;;;;;;5.36;100.00;101493.70;105862;1251;60435;-75
2023/12/19 04:22:45;;;;;;;109.90;55.90;;;;;;;5.37;100.00;101497.98;105922;1256;73946;-74
2023/12/19 04:25:12;;;;;;;114.00;57.20;;;;;;;5.38;100.00;101499.54;105930;1257;62826;-74
2023/12/19 04:27:39;;;;;;;117.00;56.80;;;;;;;5.38;100.00;101512.02;105827;1263;72458;-76
2023/12/19 04:30:07;;;;;;;131.60;59.30;;;;;;;5.38;100.00;101517.23;105939;1264;61047;-75
2023/12/19 04:32:34;;;;;;;114.00;53.80;;;;;;;5.39;100.00;101510.80;105923;1257;60764;-77
2023/12/19 04:35:03;;;;;;;108.30;52.70;;;;;;;5.38;100.00;101506.83;106148;1251;73891;-75
2023/12/19 04:37:30;;;;;;;113.50;52.90;;;;;;;5.38;100.00;101507.16;105867;1256;62969;-75
2023/12/19 04:39:59;;;;;;;114.80;56.70;;;;;;;5.38;100.00;101504.04;106041;1257;70243;-74
2023/12/19 04:42:26;;;;;;;104.30;51.00;;;;;;;5.39;100.00;101503.66;105906;1256;61324;-75
2023/12/19 04:44:53;;;;;;;104.60;51.90;;;;;;;5.39;100.00;101505.25;106005;1252;60450;-74
2023/12/19 04:47:20;;;;;;;108.70;55.10;;;;;;;5.39;100.00;101508.20;106041;1256;72637;-76
2023/12/19 04:49:47;;;;;;;110.40;53.10;;;;;;;5.38;100.00;101510.28;105870;1256;62884;-75
2023/12/19 04:52:13;;;;;;;90.70;47.20;;;;;;;5.39;100.00;101510.77;105893;1255;71394;-75
2023/12/19 04:54:40;;;;;;;98.10;50.10;;;;;;;5.39;100.00;101514.26;105958;1251;61212;-76
2023/12/19 04:57:08;;;;;;;100.70;53.10;;;;;;;5.40;100.00;101514.24;105857;1251;60549;-76
2023/12/19 04:59:35;;;;;;;96.10;48.90;;;;;;;5.40;100.00;101512.67;105842;1253;74115;-77
2023/12/19 05:02:02;;;;;;;88.30;46.40;;;;;;;5.41;100.00;101513.35;105979;1257;63840;-75
2023/12/19 05:04:29;;;;;;;79.80;45.20;;;;;;;5.42;100.00;101512.27;105891;1251;71736;-75
2023/12/19 05:06:55;;;;;;;83.50;44.90;;;;;;;5.42;100.00;101515.75;105846;1257;62135;-75
2023/12/19 05:09:22;;;;;;;88.10;45.80;;;;;;;5.42;100.00;101513.50;105899;1256;60431;-74
2023/12/19 05:11:49;;;;;;;95.60;47.80;;;;;;;5.43;100.00;101517.14;105848;1257;73871;-74
2023/12/19 05:14:16;;;;;;;97.10;47.00;;;;;;;5.43;100.00;101516.95;105819;1255;63854;-75
2023/12/19 05:16:43;;;;;;;88.00;42.90;;;;;;;5.44;100.00;101523.86;106017;1257;72467;-75
2023/12/19 05:19:10;;;;;;;100.30;46.50;;;;;;;5.44;100.00;101528.70;105884;1251;60561;-75
2023/12/19 05:21:38;;;;;;;98.50;45.40;;;;;;;5.44;100.00;101534.77;106274;1254;60543;-74
2023/12/19 05:24:06;;;;;;;111.50;50.80;;;;;;;5.45;100.00;101534.58;106255;1254;72545;-75
2023/12/19 05:26:35;;;;;;;107.10;53.90;;;;;;;5.45;100.00;101529.89;106308;1255;62884;-76
2023/12/19 05:29:02;;;;;;;119.20;55.40;;;;;;;5.45;100.00;101530.08;106635;1253;71423;-76
2023/12/19 05:31:29;;;;;;;107.70;54.60;;;;;;;5.45;100.00;101531.98;106113;1257;61136;-75
2023/12/19 05:33:56;;;;;;;109.60;54.10;;;;;;;5.44;100.00;101537.36;106236;1251;60447;-76
2023/12/19 05:36:23;;;;;;;106.70;48.00;;;;;;;5.43;100.00;101544.85;106003;1257;73810;-75
2023/12/19 05:38:51;;;;;;;94.00;44.60;;;;;;;5.42;100.00;101545.23;106020;1257;62796;-75
2023/12/19 05:41:18;;;;;;;89.10;40.00;;;;;;;5.41;100.00;101548.02;106163;1256;72662;-76
2023/12/19 05:43:45;;;;;;;87.10;37.90;;;;;;;5.40;100.00;101543.36;105905;1257;61093;-76
2023/12/19 05:46:13;;;;;;;76.10;35.90;;;;;;;5.39;100.00;101545.14;105862;1257;60309;-75
2023/12/19 05:48:40;;;;;;;68.10;31.50;;;;;;;5.39;100.00;101544.61;106016;1251;73717;-74
2023/12/19 05:51:07;;;;;;;59.40;29.80;;;;;;;5.39;100.00;101545.13;105989;1255;63941;-74
2023/12/19 05:53:37;;;;;;;60.90;29.40;;;;;;;5.39;100.00;101547.73;105912;1257;72586;-77
2023/12/19 05:56:05;;;;;;;56.70;27.30;;;;;;;5.39;100.00;101546.35;105929;1252;60537;-75
2023/12/19 05:58:31;;;;;;;58.20;28.60;;;;;;;5.37;100.00;101544.80;106021;1256;60449;-75
2023/12/19 06:00:58;;;;;;;49.70;27.30;;;;;;;5.37;100.00;101543.78;105845;1251;73654;-75
2023/12/19 06:03:25;;;;;;;48.80;24.40;;;;;;;5.37;100.00;101542.57;105854;1259;62339;-76
2023/12/19 06:05:52;;;;;;;52.30;25.80;;;;;;;5.37;100.00;101545.35;105954;1256;72713;-76
2023/12/19 06:08:20;;;;;;;51.10;24.60;;;;;;;5.37;100.00;101548.28;106034;1256;60999;-76
2023/12/19 06:10:47;;;;;;;51.00;25.10;;;;;;;5.37;100.00;101548.62;106293;1251;60386;-75
2023/12/19 06:13:14;;;;;;;55.10;24.90;;;;;;;5.38;100.00;101551.73;108146;1251;73887;-74
2023/12/19 06:15:44;;;;;;;41.70;21.30;;;;;;;5.39;100.00;101555.88;108729;1252;62546;-75
2023/12/19 06:18:11;;;;;;;45.00;24.50;;;;;;;5.39;100.00;101559.15;106689;1252;71341;-75
2023/12/19 06:20:39;;;;;;;47.40;26.20;;;;;;;5.40;100.00;101563.65;105971;1264;61012;-77
2023/12/19 06:23:07;;;;;;;50.70;25.40;;;;;;;5.42;100.00;101570.73;105914;1251;60414;-75
2023/12/19 06:25:34;;;;;;;48.80;23.50;;;;;;;5.44;100.00;101578.15;105954;1256;73783;-74
2023/12/19 06:28:02;;;;;;;39.50;22.10;;;;;;;5.47;100.00;101580.67;106026;1257;63918;-75
2023/12/19 06:30:29;;;;;;;45.30;21.40;;;;;;;5.50;100.00;101579.03;105887;1256;72690;-76
2023/12/19 06:33:01;;;;;;;40.30;22.00;;;;;;;5.53;100.00;101579.49;105928;1257;60546;-76
2023/12/19 06:35:30;;;;;;;42.30;22.70;;;;;;;5.56;100.00;101574.55;105791;1251;60562;-74
2023/12/19 06:37:57;;;;;;;48.30;22.50;;;;;;;5.58;100.00;101572.58;105861;1251;72377;-76
2023/12/19 06:40:24;;;;;;;48.80;25.50;;;;;;;5.60;100.00;101571.69;105928;1255;63927;-77
2023/12/19 06:42:51;;;;;;;48.80;23.60;;;;;;;5.62;100.00;101571.48;105784;1256;72645;-75
2023/12/19 06:45:18;;;;;;;47.70;22.80;;;;;;;5.64;100.00;101566.73;105943;1261;60450;-75
2023/12/19 06:47:46;;;;;;;47.20;22.30;;;;;;;5.65;100.00;101562.02;105906;1252;60386;-76
2023/12/19 06:50:13;;;;;;;42.00;22.60;;;;;;;5.67;100.00;101555.91;106108;1251;72262;-76
2023/12/19 06:52:40;;;;;;;44.70;22.40;;;;;;;5.69;100.00;101552.04;106998;1255;63581;-74
2023/12/19 06:55:14;;;;;;;46.70;25.00;;;;;;;5.71;100.00;101551.13;106979;1256;72764;-75
2023/12/19 06:57:41;;;;;;;45.70;23.50;;;;;;;5.74;100.00;101548.96;107096;1257;60441;-72
2023/12/19 07:00:08;;;;;;;45.80;22.00;;;;;;;5.78;100.00;101543.14;106043;1252;60498;-73
2023/12/19 07:02:35;;;;;;;42.40;22.40;;;;;;;5.81;100.00;101543.58;105989;1256;72828;-75
2023/12/19 07:05:03;;;;;;;43.70;22.60;;;;;;;5.84;100.00;101549.59;105920;1255;63875;-75
2023/12/19 07:07:32;;;;;;;45.40;23.20;;;;;;;5.88;100.00;101552.26;106047;1257;72629;-75
2023/12/19 07:09:59;;;;;;;41.50;22.70;;;;;;;5.92;100.00;101556.85;105913;1256;61170;-74
2023/12/19 07:12:26;;;;;;;41.30;24.10;;;;;;;5.95;100.00;101556.61;105921;1251;60411;-75
2023/12/19 07:14:53;;;;;;;47.10;26.90;;;;;;;5.98;100.00;101565.55;106010;1264;73870;-75
2023/12/19 07:17:20;;;;;;;45.10;25.80;;;;;;;6.02;100.00;101568.25;105839;1257;64015;-75
2023/12/19 07:19:48;;;;;;;49.70;27.90;;;;;;;6.04;100.00;101569.42;105864;1257;72687;-75
2023/12/19 07:22:15;;;;;;;46.40;24.30;;;;;;;6.07;100.00;101571.95;105864;1256;60555;-74
2023/12/19 07:24:43;;;;;;;45.10;23.40;;;;;;;6.09;100.00;101576.05;105841;1256;60850;-75
2023/12/19 07:27:10;;;;;;;43.50;21.90;;;;;;;6.12;100.00;101579.29;105931;1256;73742;-74
2023/12/19 07:29:37;;;;;;;42.60;22.20;;;;;;;6.13;100.00;101583.94;105944;1264;63841;-75
2023/12/19 07:32:06;;;;;;;43.70;22.20;;;;;;;6.13;100.00;101589.30;105909;1256;70670;-76
2023/12/19 07:34:33;;;;;;;39.00;20.70;;;;;;;6.14;100.00;101592.25;105997;1257;60485;-74
2023/12/19 07:37:00;;;;;;;42.00;21.50;;;;;;;6.14;100.00;101597.27;105907;1257;60491;-76
2023/12/19 07:39:27;;;;;;;47.40;22.40;;;;;;;6.15;100.00;101596.73;105847;1257;73827;-75
2023/12/19 07:41:54;;;;;;;47.90;23.60;;;;;;;6.16;100.00;101592.90;105869;1256;63936;-75
2023/12/19 07:44:23;;;;;;;41.20;22.20;;;;;;;6.17;100.00;101588.34;105877;1257;71189;-77
2023/12/19 07:46:50;;;;;;;130.10;102.90;;;;;;;6.17;100.00;101584.35;105872;1257;60469;-73
2023/12/19 07:49:18;;;;;;;58.00;35.00;;;;;;;6.17;100.00;101587.46;105882;1253;60543;-75
2023/12/19 07:51:46;;;;;;;40.50;21.60;;;;;;;6.18;100.00;101587.97;105891;1251;73875;-77
2023/12/19 07:54:13;;;;;;;42.80;23.20;;;;;;;6.19;100.00;101591.95;105889;1256;63703;-76
2023/12/19 07:56:42;;;;;;;39.40;20.80;;;;;;;6.20;100.00;101587.75;105862;1255;71223;-77
2023/12/19 07:59:10;;;;;;;37.30;20.70;;;;;;;6.23;100.00;101593.23;105918;1256;61161;-76
2023/12/19 08:01:38;;;;;;;37.70;19.60;;;;;;;6.24;100.00;101594.41;105862;1257;60414;-77
2023/12/19 08:04:06;;;;;;;39.00;20.70;;;;;;;6.23;100.00;101594.95;106033;1251;73828;-77
2023/12/19 08:06:33;;;;;;;43.00;22.20;;;;;;;6.25;100.00;101595.96;106049;1257;63874;-76
2023/12/19 08:09:00;;;;;;;32.80;19.00;;;;;;;6.26;100.00;101595.05;105838;1251;72612;-76
2023/12/19 08:11:27;;;;;;;33.00;19.00;;;;;;;6.29;100.00;101596.54;105893;1252;61159;-76
2023/12/19 08:13:54;;;;;;;42.30;22.90;;;;;;;6.32;100.00;101592.98;105872;1257;60425;-78
2023/12/19 08:16:22;;;;;;;34.00;18.60;;;;;;;6.35;100.00;101585.63;106050;1253;73932;-75
2023/12/19 08:18:50;;;;;;;37.00;19.80;;;;;;;6.35;100.00;101582.48;106873;1257;63917;-75
2023/12/19 08:21:19;;;;;;;37.00;19.90;;;;;;;6.35;100.00;101585.28;106200;1251;71122;-75
2023/12/19 08:23:47;;;;;;;36.50;17.70;;;;;;;6.36;100.00;101587.69;105989;1251;61199;-76
2023/12/19 08:26:14;;;;;;;31.40;19.10;;;;;;;6.35;100.00;101588.73;105954;1256;60414;-75
2023/12/19 08:28:41;;;;;;;32.40;18.90;;;;;;;6.35;100.00;101586.83;105938;1255;73850;-77
2023/12/19 08:31:08;;;;;;;35.40;19.70;;;;;;;6.34;100.00;101581.64;105953;1256;63981;-76
2023/12/19 08:33:41;;;;;;;36.80;17.70;;;;;;;6.34;100.00;101585.65;105918;1257;72719;-75
2023/12/19 08:36:08;;;;;;;31.40;17.00;;;;;;;6.34;100.00;101579.39;105953;1257;60966;-74
2023/12/19 08:38:54;;;;;;;32.90;18.50;;;;;;;6.34;100.00;101571.92;105926;1251;60469;-77
2023/12/19 08:41:21;;;;;;;34.90;19.80;;;;;;;6.35;100.00;101566.52;105809;1256;73498;-74
2023/12/19 08:43:48;;;;;;;54.90;34.30;;;;;;;6.34;100.00;101558.20;105793;1253;63966;-74
2023/12/19 08:46:19;;;;;;;40.10;20.30;;;;;;;6.34;100.00;101549.51;105860;1251;72552;-74
2023/12/19 08:48:47;;;;;;;36.70;21.00;;;;;;;6.35;100.00;101538.02;105855;1257;61119;-77
2023/12/19 08:51:15;;;;;;;28.80;17.20;;;;;;;6.36;100.00;101528.13;105870;1251;60373;-76
2023/12/19 08:53:41;;;;;;;34.70;19.90;;;;;;;6.36;100.00;101520.80;105795;1251;73884;-74
2023/12/19 08:56:09;;;;;;;35.30;20.20;;;;;;;6.38;100.00;101513.81;105830;1251;63278;-77
2023/12/19 08:58:36;;;;;;;33.50;19.30;;;;;;;6.41;100.00;101504.87;105945;1251;71641;-76
2023/12/19 09:01:03;;;;;;;33.70;19.20;;;;;;;6.42;100.00;101497.53;106010;1257;61196;-76
2023/12/19 09:03:30;;;;;;;33.00;19.20;;;;;;;6.43;100.00;101494.71;105912;1251;60478;-77
2023/12/19 09:05:57;;;;;;;33.30;20.20;;;;;;;6.45;100.00;101498.15;105992;1256;73701;-76
2023/12/19 09:08:24;;;;;;;35.00;18.30;;;;;;;6.48;100.00;101504.67;105958;1251;64806;-76
2023/12/19 09:10:52;;;;;;;36.50;19.80;;;;;;;6.52;100.00;101500.55;105840;1251;73305;-77
2023/12/19 09:13:21;;;;;;;32.30;19.30;;;;;;;6.55;100.00;101496.30;105906;1256;62903;-75
2023/12/19 09:15:48;;;;;;;29.00;18.40;;;;;;;6.58;100.00;101499.70;105861;1251;60457;-76
2023/12/19 09:18:16;;;;;;;32.70;18.40;;;;;;;6.61;100.00;101496.11;105962;1251;72208;-76
2023/12/19 09:20:43;;;;;;;28.50;16.40;;;;;;;6.64;100.00;101502.46;105884;1255;63799;-76
2023/12/19 09:23:11;;;;;;;32.40;17.90;;;;;;;6.65;100.00;101501.05;105800;1253;72706;-77
2023/12/19 09:25:38;;;;;;;26.40;16.80;;;;;;;6.66;100.00;101501.55;105944;1257;60505;-76
2023/12/19 09:28:05;;;;;;;26.50;16.10;;;;;;;6.63;100.00;101497.44;105924;1251;60473;-76
2023/12/19 09:30:32;;;;;;;29.60;16.50;;;;;;;6.60;100.00;101491.48;106052;1251;73974;-76
2023/12/19 09:32:59;;;;;;;24.00;16.20;;;;;;;6.56;100.00;101483.06;105928;1257;63717;-75
2023/12/19 09:35:26;;;;;;;26.00;15.60;;;;;;;6.54;100.00;101479.47;105888;1251;72547;-78
2023/12/19 09:37:54;;;;;;;26.10;17.20;;;;;;;6.52;100.00;101471.20;105776;1257;60982;-77
2023/12/19 09:40:26;;;;;;;27.60;17.70;;;;;;;6.49;100.00;101464.16;105909;1251;60518;-76
2023/12/19 09:42:54;;;;;;;26.70;17.00;;;;;;;6.49;100.00;101453.21;105920;1255;73892;-76
2023/12/19 09:45:22;;;;;;;25.20;17.00;;;;;;;6.48;100.00;101458.48;105792;1251;62570;-77
2023/12/19 09:48:08;;;;;;;26.70;17.40;;;;;;;6.46;100.00;101453.13;105945;1251;72525;-78
2023/12/19 09:50:37;;;;;;;23.60;15.60;;;;;;;6.46;100.00;101447.77;105910;1257;60968;-77
2023/12/19 09:53:07;;;;;;;24.20;15.70;;;;;;;6.45;100.00;101444.64;105872;1257;60390;-78
2023/12/19 09:55:42;;;;;;;22.90;15.70;;;;;;;6.46;100.00;101443.23;105943;1255;72801;-76
2023/12/19 10:01:07;;;;;;;24.40;15.80;;;;;;;6.47;100.00;101439.73;103198;1289;616286;-76
2023/12/19 10:03:35;;;;;;;24.20;16.40;;;;;;;6.44;100.00;101433.02;105844;1269;61240;-76
2023/12/19 10:06:03;;;;;;;19.40;15.50;;;;;;;6.43;100.00;101430.29;107808;1267;60262;-77
2023/12/19 10:08:31;;;;;;;20.20;13.80;;;;;;;6.41;100.00;101432.41;108074;1267;70114;-76
2023/12/19 10:10:59;;;;;;;21.20;14.60;;;;;;;6.40;100.00;101434.02;105400;1271;62615;-76
2023/12/19 10:13:32;;;;;;;20.10;15.50;;;;;;;6.40;100.00;101429.50;104775;1269;192261;-76
2023/12/19 10:16:04;;;;;;;20.70;15.40;;;;;;;6.41;100.00;101431.73;105089;1263;61080;-77
2023/12/19 10:18:55;;;;;;;26.30;15.60;;;;;;;6.44;100.00;101427.66;105065;1266;60087;-77
2023/12/19 10:21:24;;;;;;;22.70;16.00;;;;;;;6.48;100.00;101419.39;105907;1256;71262;-77
2023/12/19 10:23:51;;;;;;;21.50;16.40;;;;;;;6.51;100.00;101419.11;105895;1254;63866;-75
2023/12/19 10:26:28;;;;;;;21.90;16.10;;;;;;;6.55;100.00;101415.86;105858;1254;72441;-77
2023/12/19 10:28:56;;;;;;;21.30;15.10;;;;;;;6.59;100.00;101411.73;105880;1252;59743;-75
2023/12/19 10:31:24;;;;;;;19.30;15.00;;;;;;;6.62;100.00;101406.61;105884;1251;60242;-77
2023/12/19 10:33:54;;;;;;;23.40;15.30;;;;;;;6.64;100.00;101402.73;105862;1251;72718;-76
2023/12/19 10:36:31;;;;;;;18.20;13.80;;;;;;;6.68;100.00;101401.39;105852;1254;62951;-76
2023/12/19 10:39:00;;;;;;;21.10;15.20;;;;;;;6.72;100.00;101395.20;105946;1254;72711;-76
2023/12/19 10:41:31;;;;;;;21.90;16.10;;;;;;;6.74;100.00;101393.55;106016;1254;61171;-75
2023/12/19 10:43:58;;;;;;;23.90;16.70;;;;;;;6.76;100.00;101395.23;105832;1255;59725;-77
2023/12/19 10:46:29;;;;;;;25.50;19.00;;;;;;;6.77;100.00;101395.73;105869;1253;72931;-75
2023/12/19 10:49:03;;;;;;;25.30;19.30;;;;;;;6.78;100.00;101394.64;105948;1257;62713;-77
2023/12/19 10:51:34;;;;;;;20.30;16.10;;;;;;;6.82;100.00;101396.79;105937;1254;72677;-77
2023/12/19 10:54:10;;;;;;;47.40;24.70;;;;;;;6.84;100.00;101398.11;105797;1251;59765;-77
2023/12/19 10:56:46;;;;;;;33.70;20.00;;;;;;;6.84;100.00;101400.34;105833;1256;60330;-76
2023/12/19 10:59:20;;;;;;;56.20;42.70;;;;;;;6.86;100.00;101402.55;105854;1255;72998;-76
2023/12/19 11:01:48;;;;;;;24.40;16.80;;;;;;;6.87;100.00;101395.58;105947;1257;62618;-75
2023/12/19 11:04:19;;;;;;;23.80;16.10;;;;;;;6.88;100.00;101390.50;105803;1267;72581;-76
2023/12/19 11:06:53;;;;;;;26.60;17.90;;;;;;;6.88;100.00;101386.00;106023;1257;61775;-76